JST890 YSSY-YHBA
Flight info
| Callsign | JST890 |
|---|---|
| Flight time | 1h 33m |
| Altitude | 37000 |
| Route | OLSEM Y193 BANDA H252 GOMOL/N0454F380 Q69 ITIDE T55 HAAVI |
| Aircraft | A320/M-SDE3FGHIRWYZ/LB1 |
Departure
| Time | 2026-04-12 04:10 |
|---|---|
| Airport | Sydney Kingsford Smith International Airport (YSSY) |
Arrival
| Time | 2026-04-12 05:43 |
|---|---|
| Airport | Hervey Bay Airport (YHBA) |
| Time | Latitude | Longitude | Altitude | Speed | Heading |
|---|---|---|---|---|---|
| 2026-04-12 03:44 | -33.93524 | 151.17765 | 30 ft | 0 kts | 279° |
| 2026-04-12 03:57 | -33.93524 | 151.17766 | 30 ft | 1 kts | 279° |
| 2026-04-12 03:57 | -33.93527 | 151.17785 | 30 ft | 3 kts | 280° |
| 2026-04-12 03:58 | -33.93530 | 151.17809 | 30 ft | 3 kts | 273° |
| 2026-04-12 03:58 | -33.93529 | 151.17831 | 30 ft | 3 kts | 236° |
| 2026-04-12 03:58 | -33.93523 | 151.17839 | 30 ft | 1 kts | 190° |
| 2026-04-12 03:58 | -33.93533 | 151.17837 | 30 ft | 3 kts | 190° |
| 2026-04-12 03:59 | -33.93553 | 151.17833 | 30 ft | 3 kts | 190° |
| 2026-04-12 03:59 | -33.93573 | 151.17828 | 30 ft | 3 kts | 190° |
| 2026-04-12 03:59 | -33.93593 | 151.17824 | 30 ft | 3 kts | 190° |
| 2026-04-12 03:59 | -33.93603 | 151.17822 | 30 ft | 0 kts | 190° |
| 2026-04-12 04:04 | -33.93623 | 151.17818 | 30 ft | 6 kts | 190° |
| 2026-04-12 04:04 | -33.93680 | 151.17803 | 30 ft | 10 kts | 195° |
| 2026-04-12 04:04 | -33.93754 | 151.17789 | 30 ft | 11 kts | 157° |
| 2026-04-12 04:04 | -33.93799 | 151.17873 | 30 ft | 13 kts | 109° |
| 2026-04-12 04:05 | -33.93791 | 151.17983 | 30 ft | 14 kts | 73° |
| 2026-04-12 04:05 | -33.93762 | 151.18107 | 30 ft | 16 kts | 74° |
| 2026-04-12 04:05 | -33.93730 | 151.18242 | 30 ft | 17 kts | 75° |
| 2026-04-12 04:05 | -33.93706 | 151.18344 | 30 ft | 0 kts | 72° |
| 2026-04-12 04:06 | -33.93702 | 151.18359 | 30 ft | 4 kts | 72° |
| 2026-04-12 04:06 | -33.93692 | 151.18400 | 30 ft | 7 kts | 74° |
| 2026-04-12 04:06 | -33.93671 | 151.18488 | 30 ft | 15 kts | 74° |
| 2026-04-12 04:06 | -33.93639 | 151.18624 | 30 ft | 18 kts | 74° |
| 2026-04-12 04:07 | -33.93604 | 151.18774 | 30 ft | 20 kts | 73° |
| 2026-04-12 04:07 | -33.93597 | 151.18881 | 30 ft | 11 kts | 113° |
| 2026-04-12 04:07 | -33.93657 | 151.18946 | 28 ft | 9 kts | 164° |
| 2026-04-12 04:07 | -33.93665 | 151.18948 | 27 ft | 0 kts | 165° |
| 2026-04-12 04:08 | -33.93672 | 151.18951 | 27 ft | 4 kts | 165° |
| 2026-04-12 04:08 | -33.93730 | 151.18965 | 24 ft | 12 kts | 173° |
| 2026-04-12 04:08 | -33.93766 | 151.18937 | 26 ft | 5 kts | 255° |
| 2026-04-12 04:09 | -33.93768 | 151.18927 | 27 ft | 1 kts | 255° |
| 2026-04-12 04:09 | -33.93772 | 151.18909 | 26 ft | 3 kts | 256° |
| 2026-04-12 04:09 | -33.93794 | 151.18816 | 26 ft | 36 kts | 253° |
| 2026-04-12 04:09 | -33.93923 | 151.18270 | 29 ft | 96 kts | 254° |
| 2026-04-12 04:10 | -33.94151 | 151.17312 | 46 ft | 139 kts | 253° |
| 2026-04-12 04:10 | -33.94425 | 151.16162 | 540 ft | 146 kts | 252° |
| 2026-04-12 04:10 | -33.94708 | 151.14961 | 1103 ft | 151 kts | 252° |
| 2026-04-12 04:10 | -33.94997 | 151.13732 | 1736 ft | 155 kts | 253° |
| 2026-04-12 04:11 | -33.95410 | 151.12441 | 2086 ft | 176 kts | 248° |
| 2026-04-12 04:11 | -33.95953 | 151.10999 | 2370 ft | 201 kts | 246° |
| 2026-04-12 04:11 | -33.96544 | 151.09359 | 2798 ft | 225 kts | 247° |
| 2026-04-12 04:11 | -33.97141 | 151.07564 | 3582 ft | 234 kts | 250° |
| 2026-04-12 04:12 | -33.97669 | 151.05687 | 4547 ft | 238 kts | 252° |
| 2026-04-12 04:12 | -33.98151 | 151.03758 | 5483 ft | 243 kts | 253° |
| 2026-04-12 04:12 | -33.98481 | 151.01765 | 6386 ft | 248 kts | 259° |
| 2026-04-12 04:12 | -33.98678 | 150.99685 | 7218 ft | 252 kts | 263° |
| 2026-04-12 04:13 | -33.98389 | 150.97569 | 8023 ft | 266 kts | 289° |
| 2026-04-12 04:13 | -33.97244 | 150.95766 | 8862 ft | 281 kts | 315° |
| 2026-04-12 04:13 | -33.95549 | 150.94499 | 9700 ft | 295 kts | 333° |
| 2026-04-12 04:13 | -33.93466 | 150.94057 | 10256 ft | 321 kts | 356° |
| 2026-04-12 04:14 | -33.91181 | 150.94649 | 10495 ft | 353 kts | 20° |
| 2026-04-12 04:14 | -33.89110 | 150.96348 | 10996 ft | 369 kts | 44° |
| 2026-04-12 04:14 | -33.87470 | 150.98765 | 11643 ft | 376 kts | 52° |
| 2026-04-12 04:14 | -33.85910 | 151.01322 | 12310 ft | 381 kts | 52° |
| 2026-04-12 04:15 | -33.84347 | 151.03922 | 12957 ft | 386 kts | 53° |
| 2026-04-12 04:15 | -33.82774 | 151.06559 | 13619 ft | 391 kts | 52° |
| 2026-04-12 04:15 | -33.81189 | 151.09238 | 14193 ft | 395 kts | 53° |
| 2026-04-12 04:15 | -33.79590 | 151.11956 | 14770 ft | 400 kts | 54° |
| 2026-04-12 04:16 | -33.78311 | 151.14935 | 15312 ft | 405 kts | 70° |
| 2026-04-12 04:16 | -33.77353 | 151.18143 | 15859 ft | 409 kts | 70° |
| 2026-04-12 04:16 | -33.76395 | 151.21380 | 16411 ft | 414 kts | 70° |
| 2026-04-12 04:16 | -33.75432 | 151.24658 | 16989 ft | 417 kts | 70° |
| 2026-04-12 04:17 | -33.74461 | 151.27956 | 17553 ft | 421 kts | 70° |
| 2026-04-12 04:17 | -33.73478 | 151.31291 | 18105 ft | 425 kts | 70° |
| 2026-04-12 04:17 | -33.72485 | 151.34658 | 18616 ft | 429 kts | 70° |
| 2026-04-12 04:17 | -33.71482 | 151.38045 | 19149 ft | 432 kts | 70° |
| 2026-04-12 04:18 | -33.70472 | 151.41450 | 19680 ft | 434 kts | 70° |
| 2026-04-12 04:18 | -33.69453 | 151.44877 | 20225 ft | 436 kts | 70° |
| 2026-04-12 04:18 | -33.68427 | 151.48317 | 20734 ft | 439 kts | 70° |
| 2026-04-12 04:18 | -33.67395 | 151.51776 | 21228 ft | 442 kts | 70° |
| 2026-04-12 04:19 | -33.66315 | 151.55185 | 21694 ft | 444 kts | 65° |
| 2026-04-12 04:19 | -33.64808 | 151.58429 | 22152 ft | 446 kts | 53° |
| 2026-04-12 04:19 | -33.62867 | 151.61318 | 22617 ft | 445 kts | 43° |
| 2026-04-12 04:19 | -33.60560 | 151.63780 | 23122 ft | 443 kts | 32° |
| 2026-04-12 04:20 | -33.58010 | 151.65839 | 23612 ft | 442 kts | 28° |
| 2026-04-12 04:20 | -33.55426 | 151.67862 | 24015 ft | 445 kts | 28° |
| 2026-04-12 04:20 | -33.52828 | 151.69900 | 24353 ft | 448 kts | 28° |
| 2026-04-12 04:20 | -33.50151 | 151.71802 | 24720 ft | 446 kts | 21° |
| 2026-04-12 04:21 | -33.47289 | 151.73219 | 25090 ft | 443 kts | 12° |
| 2026-04-12 04:21 | -33.44321 | 151.74212 | 25455 ft | 443 kts | 9° |
| 2026-04-12 04:21 | -33.41338 | 151.75169 | 25824 ft | 446 kts | 9° |
| 2026-04-12 04:21 | -33.38333 | 151.76141 | 26191 ft | 449 kts | 9° |
| 2026-04-12 04:22 | -33.35315 | 151.77124 | 26559 ft | 451 kts | 9° |
| 2026-04-12 04:22 | -33.32275 | 151.78108 | 26901 ft | 454 kts | 9° |
| 2026-04-12 04:22 | -33.29220 | 151.79095 | 27276 ft | 456 kts | 9° |
| 2026-04-12 04:22 | -33.26153 | 151.80088 | 27642 ft | 458 kts | 9° |
| 2026-04-12 04:23 | -33.23067 | 151.81085 | 28000 ft | 460 kts | 9° |
| 2026-04-12 04:23 | -33.19967 | 151.82086 | 28360 ft | 463 kts | 9° |
| 2026-04-12 04:23 | -33.16846 | 151.83092 | 28718 ft | 465 kts | 9° |
| 2026-04-12 04:23 | -33.13708 | 151.84100 | 29081 ft | 468 kts | 9° |
| 2026-04-12 04:24 | -33.10552 | 151.85111 | 29407 ft | 470 kts | 9° |
| 2026-04-12 04:24 | -33.07392 | 151.86125 | 29789 ft | 472 kts | 9° |
| 2026-04-12 04:24 | -33.05287 | 151.86800 | 30016 ft | 474 kts | 9° |
| 2026-04-12 04:24 | -33.01060 | 151.88149 | 30414 ft | 476 kts | 9° |
| 2026-04-12 04:25 | -32.97852 | 151.89181 | 30729 ft | 478 kts | 9° |
| 2026-04-12 04:25 | -32.94647 | 151.90215 | 31101 ft | 477 kts | 8° |
| 2026-04-12 04:25 | -32.91454 | 151.91248 | 31561 ft | 475 kts | 8° |
| 2026-04-12 04:25 | -32.88267 | 151.92273 | 31963 ft | 473 kts | 7° |
| 2026-04-12 04:26 | -32.85086 | 151.93290 | 32428 ft | 471 kts | 6° |
| 2026-04-12 04:26 | -32.81937 | 151.94296 | 32992 ft | 467 kts | 6° |
| 2026-04-12 04:26 | -32.79863 | 151.94959 | 33358 ft | 465 kts | 5° |
| 2026-04-12 04:26 | -32.76747 | 151.95952 | 33859 ft | 462 kts | 5° |
| 2026-04-12 04:27 | -32.73641 | 151.96938 | 34241 ft | 461 kts | 5° |
| 2026-04-12 04:27 | -32.70551 | 151.97923 | 34598 ft | 459 kts | 5° |
| 2026-04-12 04:27 | -32.67466 | 151.98908 | 34938 ft | 458 kts | 5° |
| 2026-04-12 04:27 | -32.64389 | 151.99887 | 35277 ft | 457 kts | 4° |
| 2026-04-12 04:28 | -32.61320 | 152.00860 | 35613 ft | 456 kts | 4° |
| 2026-04-12 04:28 | -32.58257 | 152.01832 | 35934 ft | 455 kts | 4° |
| 2026-04-12 04:28 | -32.55198 | 152.02802 | 36244 ft | 454 kts | 4° |
| 2026-04-12 04:28 | -32.52148 | 152.03771 | 36552 ft | 453 kts | 4° |
| 2026-04-12 04:29 | -32.49106 | 152.04737 | 36808 ft | 453 kts | 4° |
| 2026-04-12 04:29 | -32.43011 | 152.06668 | 36895 ft | 453 kts | 3° |
| 2026-04-12 04:30 | -32.36957 | 152.08569 | 36892 ft | 453 kts | 3° |
| 2026-04-12 04:30 | -32.30821 | 152.10500 | 36892 ft | 453 kts | 3° |
| 2026-04-12 04:31 | -32.24770 | 152.12416 | 36889 ft | 453 kts | 3° |
| 2026-04-12 04:31 | -32.18662 | 152.14347 | 36890 ft | 455 kts | 2° |
| 2026-04-12 04:32 | -32.12541 | 152.16276 | 36900 ft | 455 kts | 2° |
| 2026-04-12 04:32 | -32.06419 | 152.18197 | 36902 ft | 455 kts | 2° |
| 2026-04-12 04:33 | -32.00310 | 152.20108 | 36857 ft | 454 kts | 2° |
| 2026-04-12 04:33 | -31.94193 | 152.22017 | 36872 ft | 454 kts | 2° |
| 2026-04-12 04:34 | -31.88087 | 152.23929 | 36877 ft | 454 kts | 2° |
| 2026-04-12 04:34 | -31.81973 | 152.25842 | 36887 ft | 454 kts | 2° |
| 2026-04-12 04:35 | -31.75873 | 152.27743 | 36865 ft | 452 kts | 1° |
| 2026-04-12 04:35 | -31.69792 | 152.29638 | 36888 ft | 452 kts | 1° |
| 2026-04-12 04:36 | -31.63716 | 152.31532 | 36894 ft | 451 kts | 1° |
| 2026-04-12 04:36 | -31.57649 | 152.33420 | 36893 ft | 451 kts | 1° |
| 2026-04-12 04:37 | -31.51592 | 152.35298 | 36892 ft | 449 kts | 0° |
| 2026-04-12 04:37 | -31.45558 | 152.37164 | 36915 ft | 448 kts | 0° |
| 2026-04-12 04:38 | -31.39543 | 152.39020 | 36909 ft | 446 kts | 0° |
| 2026-04-12 04:38 | -31.33581 | 152.40857 | 36903 ft | 445 kts | 1° |
| 2026-04-12 04:39 | -31.27594 | 152.42709 | 36862 ft | 445 kts | 359° |
| 2026-04-12 04:39 | -31.21619 | 152.44552 | 36883 ft | 443 kts | 359° |
| 2026-04-12 04:40 | -31.15658 | 152.46389 | 36889 ft | 443 kts | 359° |
| 2026-04-12 04:40 | -31.09687 | 152.48216 | 36880 ft | 443 kts | 359° |
| 2026-04-12 04:41 | -31.03724 | 152.50051 | 36886 ft | 443 kts | 359° |
| 2026-04-12 04:41 | -30.97756 | 152.51887 | 36906 ft | 443 kts | 359° |
| 2026-04-12 04:42 | -30.91799 | 152.53710 | 36907 ft | 442 kts | 358° |
| 2026-04-12 04:42 | -30.85903 | 152.55506 | 36864 ft | 441 kts | 358° |
| 2026-04-12 04:43 | -30.76999 | 152.58291 | 36880 ft | 444 kts | 0° |
| 2026-04-12 04:43 | -30.71075 | 152.60445 | 36888 ft | 447 kts | 2° |
| 2026-04-12 04:44 | -30.65145 | 152.62685 | 36892 ft | 447 kts | 2° |
| 2026-04-12 04:44 | -30.59230 | 152.64873 | 36873 ft | 446 kts | 0° |
| 2026-04-12 04:45 | -30.53289 | 152.67009 | 36885 ft | 447 kts | 1° |
| 2026-04-12 04:45 | -30.47366 | 152.69146 | 36885 ft | 446 kts | 1° |
| 2026-04-12 04:46 | -30.41443 | 152.71282 | 36895 ft | 446 kts | 0° |
| 2026-04-12 04:46 | -30.35521 | 152.73410 | 36891 ft | 445 kts | 0° |
| 2026-04-12 04:47 | -30.29603 | 152.75530 | 36898 ft | 445 kts | 0° |
| 2026-04-12 04:47 | -30.23732 | 152.77640 | 36902 ft | 445 kts | 0° |
| 2026-04-12 04:48 | -30.17826 | 152.79766 | 36896 ft | 444 kts | 1° |
| 2026-04-12 04:48 | -30.11921 | 152.81882 | 36858 ft | 444 kts | 0° |
| 2026-04-12 04:49 | -30.06028 | 152.83995 | 36853 ft | 442 kts | 0° |
| 2026-04-12 04:49 | -30.00143 | 152.86098 | 36863 ft | 443 kts | 1° |
| 2026-04-12 04:50 | -29.94251 | 152.88203 | 36863 ft | 443 kts | 0° |
| 2026-04-12 04:50 | -29.88358 | 152.90302 | 36849 ft | 443 kts | 0° |
| 2026-04-12 04:51 | -29.82472 | 152.92408 | 36854 ft | 443 kts | 0° |
| 2026-04-12 04:51 | -29.76585 | 152.94511 | 36861 ft | 442 kts | 0° |
| 2026-04-12 04:52 | -29.70703 | 152.96599 | 36867 ft | 442 kts | 0° |
| 2026-04-12 04:52 | -29.64824 | 152.98682 | 36844 ft | 442 kts | 0° |
| 2026-04-12 04:53 | -29.58947 | 153.00760 | 36859 ft | 442 kts | 0° |
| 2026-04-12 04:54 | -29.50166 | 153.03871 | 36869 ft | 442 kts | 0° |
| 2026-04-12 04:54 | -29.44290 | 153.05958 | 36817 ft | 442 kts | 0° |
| 2026-04-12 04:55 | -29.38420 | 153.08030 | 36840 ft | 441 kts | 360° |
| 2026-04-12 04:55 | -29.32638 | 153.09496 | 36862 ft | 404 kts | 344° |
| 2026-04-12 04:56 | -29.27034 | 153.09610 | 36869 ft | 402 kts | 343° |
| 2026-04-12 04:56 | -29.21438 | 153.09674 | 36861 ft | 402 kts | 343° |
| 2026-04-12 04:57 | -29.15838 | 153.09748 | 36827 ft | 403 kts | 343° |
| 2026-04-12 04:57 | -29.10219 | 153.09842 | 36839 ft | 404 kts | 344° |
| 2026-04-12 04:58 | -29.04595 | 153.09947 | 36846 ft | 404 kts | 344° |
| 2026-04-12 04:58 | -28.98970 | 153.10040 | 36854 ft | 404 kts | 343° |
| 2026-04-12 04:59 | -28.93343 | 153.10130 | 36810 ft | 404 kts | 344° |
| 2026-04-12 04:59 | -28.87707 | 153.10225 | 36842 ft | 406 kts | 344° |
| 2026-04-12 05:00 | -28.82053 | 153.10322 | 36862 ft | 406 kts | 344° |
| 2026-04-12 05:00 | -28.76436 | 153.10419 | 36871 ft | 406 kts | 344° |
| 2026-04-12 05:01 | -28.70783 | 153.10512 | 36868 ft | 406 kts | 344° |
| 2026-04-12 05:01 | -28.65144 | 153.10604 | 36846 ft | 406 kts | 344° |
| 2026-04-12 05:02 | -28.59485 | 153.10692 | 36852 ft | 407 kts | 344° |
| 2026-04-12 05:02 | -28.53815 | 153.10788 | 36861 ft | 408 kts | 344° |
| 2026-04-12 05:03 | -28.48142 | 153.10884 | 36872 ft | 408 kts | 344° |
| 2026-04-12 05:03 | -28.42460 | 153.10979 | 36877 ft | 408 kts | 344° |
| 2026-04-12 05:04 | -28.36759 | 153.11065 | 36895 ft | 414 kts | 346° |
| 2026-04-12 05:04 | -28.31051 | 153.11159 | 36883 ft | 409 kts | 345° |
| 2026-04-12 05:05 | -28.25349 | 153.11249 | 36870 ft | 410 kts | 345° |
| 2026-04-12 05:05 | -28.19647 | 153.11340 | 36875 ft | 410 kts | 346° |
| 2026-04-12 05:06 | -28.13983 | 153.11442 | 36828 ft | 409 kts | 346° |
| 2026-04-12 05:06 | -28.08303 | 153.11542 | 36840 ft | 408 kts | 346° |
| 2026-04-12 05:07 | -28.02625 | 153.11631 | 36850 ft | 408 kts | 346° |
| 2026-04-12 05:07 | -27.96945 | 153.11719 | 36860 ft | 408 kts | 346° |
| 2026-04-12 05:08 | -27.91263 | 153.11807 | 36871 ft | 408 kts | 346° |
| 2026-04-12 05:08 | -27.85584 | 153.11896 | 36875 ft | 408 kts | 346° |
| 2026-04-12 05:09 | -27.79900 | 153.11995 | 36878 ft | 408 kts | 346° |
| 2026-04-12 05:09 | -27.74213 | 153.12094 | 36880 ft | 409 kts | 346° |
| 2026-04-12 05:10 | -27.68530 | 153.12190 | 36881 ft | 408 kts | 346° |
| 2026-04-12 05:10 | -27.62847 | 153.12282 | 36883 ft | 408 kts | 346° |
| 2026-04-12 05:11 | -27.57169 | 153.12367 | 36843 ft | 408 kts | 346° |
| 2026-04-12 05:11 | -27.51487 | 153.12449 | 36858 ft | 408 kts | 346° |
| 2026-04-12 05:12 | -27.45802 | 153.12544 | 36876 ft | 409 kts | 346° |
| 2026-04-12 05:12 | -27.40152 | 153.12639 | 36866 ft | 409 kts | 346° |
| 2026-04-12 05:12 | -27.37304 | 153.12683 | 36339 ft | 411 kts | 346° |
| 2026-04-12 05:13 | -27.34450 | 153.12729 | 35862 ft | 408 kts | 346° |
| 2026-04-12 05:13 | -27.31627 | 153.12784 | 35481 ft | 404 kts | 346° |
| 2026-04-12 05:13 | -27.29734 | 153.12821 | 35197 ft | 402 kts | 346° |
| 2026-04-12 05:13 | -27.26944 | 153.12870 | 34773 ft | 400 kts | 346° |
| 2026-04-12 05:14 | -27.24172 | 153.12913 | 34342 ft | 397 kts | 346° |
| 2026-04-12 05:14 | -27.21410 | 153.12954 | 33915 ft | 395 kts | 345° |
| 2026-04-12 05:14 | -27.18666 | 153.12995 | 33429 ft | 393 kts | 345° |
| 2026-04-12 05:14 | -27.15954 | 153.13023 | 33000 ft | 388 kts | 345° |
| 2026-04-12 05:15 | -27.13245 | 153.13064 | 32582 ft | 390 kts | 344° |
| 2026-04-12 05:15 | -27.10574 | 153.13096 | 32156 ft | 387 kts | 345° |
| 2026-04-12 05:15 | -27.07896 | 153.13128 | 31701 ft | 384 kts | 346° |
| 2026-04-12 05:15 | -27.05238 | 153.13167 | 31319 ft | 380 kts | 346° |
| 2026-04-12 05:16 | -27.02592 | 153.13214 | 30907 ft | 378 kts | 347° |
| 2026-04-12 05:16 | -26.99962 | 153.13262 | 30508 ft | 377 kts | 347° |
| 2026-04-12 05:16 | -26.97344 | 153.13313 | 30106 ft | 375 kts | 347° |
| 2026-04-12 05:16 | -26.94739 | 153.13365 | 29675 ft | 373 kts | 348° |
| 2026-04-12 05:17 | -26.92156 | 153.13417 | 29287 ft | 370 kts | 348° |
| 2026-04-12 05:17 | -26.89592 | 153.13466 | 28906 ft | 366 kts | 348° |
| 2026-04-12 05:17 | -26.87055 | 153.13507 | 28543 ft | 363 kts | 348° |
| 2026-04-12 05:17 | -26.84545 | 153.13547 | 28182 ft | 359 kts | 348° |
| 2026-04-12 05:18 | -26.82055 | 153.13584 | 27820 ft | 356 kts | 348° |
| 2026-04-12 05:18 | -26.79590 | 153.13622 | 27449 ft | 352 kts | 348° |
| 2026-04-12 05:18 | -26.77161 | 153.13662 | 27102 ft | 348 kts | 349° |
| 2026-04-12 05:18 | -26.74742 | 153.13700 | 26745 ft | 345 kts | 349° |
| 2026-04-12 05:19 | -26.72353 | 153.13736 | 26385 ft | 342 kts | 349° |
| 2026-04-12 05:19 | -26.69980 | 153.13774 | 26012 ft | 340 kts | 349° |
| 2026-04-12 05:19 | -26.67629 | 153.13811 | 25645 ft | 338 kts | 349° |
| 2026-04-12 05:19 | -26.65281 | 153.13849 | 25273 ft | 336 kts | 349° |
| 2026-04-12 05:20 | -26.62979 | 153.13887 | 24910 ft | 335 kts | 350° |
| 2026-04-12 05:20 | -26.60648 | 153.13927 | 24526 ft | 334 kts | 350° |
| 2026-04-12 05:20 | -26.58328 | 153.13964 | 24144 ft | 334 kts | 350° |
| 2026-04-12 05:20 | -26.56004 | 153.14000 | 23766 ft | 333 kts | 351° |
| 2026-04-12 05:21 | -26.53686 | 153.14034 | 23333 ft | 333 kts | 351° |
| 2026-04-12 05:21 | -26.51381 | 153.14069 | 22933 ft | 331 kts | 351° |
| 2026-04-12 05:21 | -26.49087 | 153.14104 | 22545 ft | 328 kts | 351° |
| 2026-04-12 05:21 | -26.46810 | 153.14141 | 22165 ft | 326 kts | 351° |
| 2026-04-12 05:22 | -26.44549 | 153.14177 | 21776 ft | 324 kts | 352° |
| 2026-04-12 05:22 | -26.42300 | 153.14213 | 21403 ft | 323 kts | 352° |
| 2026-04-12 05:22 | -26.40059 | 153.14250 | 21025 ft | 321 kts | 352° |
| 2026-04-12 05:22 | -26.37827 | 153.14283 | 20645 ft | 320 kts | 352° |
| 2026-04-12 05:23 | -26.35604 | 153.14315 | 20265 ft | 319 kts | 352° |
| 2026-04-12 05:23 | -26.33378 | 153.14348 | 19887 ft | 319 kts | 352° |
| 2026-04-12 05:23 | -26.31163 | 153.14381 | 19499 ft | 318 kts | 352° |
| 2026-04-12 05:23 | -26.28944 | 153.14417 | 19129 ft | 318 kts | 352° |
| 2026-04-12 05:24 | -26.26730 | 153.14453 | 18732 ft | 318 kts | 353° |
| 2026-04-12 05:24 | -26.24513 | 153.14488 | 18366 ft | 318 kts | 353° |
| 2026-04-12 05:24 | -26.22294 | 153.14524 | 17958 ft | 319 kts | 353° |
| 2026-04-12 05:24 | -26.20078 | 153.14561 | 17561 ft | 318 kts | 353° |
| 2026-04-12 05:25 | -26.17868 | 153.14596 | 17177 ft | 317 kts | 353° |
| 2026-04-12 05:25 | -26.15680 | 153.14632 | 16971 ft | 310 kts | 353° |
| 2026-04-12 05:25 | -26.13560 | 153.14672 | 16908 ft | 300 kts | 353° |
| 2026-04-12 05:25 | -26.11549 | 153.14563 | 16836 ft | 287 kts | 340° |
| 2026-04-12 05:26 | -26.09713 | 153.13824 | 16771 ft | 279 kts | 329° |
| 2026-04-12 05:26 | -26.07941 | 153.12939 | 16716 ft | 279 kts | 329° |
| 2026-04-12 05:26 | -26.06174 | 153.12054 | 16659 ft | 279 kts | 329° |
| 2026-04-12 05:26 | -26.04404 | 153.11169 | 16596 ft | 279 kts | 329° |
| 2026-04-12 05:27 | -26.02641 | 153.10289 | 16529 ft | 276 kts | 329° |
| 2026-04-12 05:27 | -26.00888 | 153.09414 | 16461 ft | 277 kts | 329° |
| 2026-04-12 05:27 | -25.99126 | 153.08535 | 16406 ft | 278 kts | 329° |
| 2026-04-12 05:27 | -25.97360 | 153.07651 | 16334 ft | 279 kts | 329° |
| 2026-04-12 05:28 | -25.95589 | 153.06765 | 16271 ft | 279 kts | 329° |
| 2026-04-12 05:28 | -25.93816 | 153.05878 | 16211 ft | 279 kts | 329° |
| 2026-04-12 05:28 | -25.92044 | 153.04993 | 16150 ft | 279 kts | 329° |
| 2026-04-12 05:28 | -25.90275 | 153.04111 | 16064 ft | 279 kts | 329° |
| 2026-04-12 05:29 | -25.88503 | 153.03229 | 15798 ft | 278 kts | 329° |
| 2026-04-12 05:29 | -25.86735 | 153.02353 | 15477 ft | 278 kts | 329° |
| 2026-04-12 05:29 | -25.84970 | 153.01475 | 15148 ft | 278 kts | 329° |
| 2026-04-12 05:29 | -25.83206 | 153.00596 | 14812 ft | 279 kts | 330° |
| 2026-04-12 05:30 | -25.81428 | 152.99714 | 14477 ft | 279 kts | 330° |
| 2026-04-12 05:30 | -25.79680 | 152.98845 | 14147 ft | 280 kts | 330° |
| 2026-04-12 05:30 | -25.77879 | 152.97948 | 13805 ft | 280 kts | 330° |
| 2026-04-12 05:30 | -25.76120 | 152.97070 | 13444 ft | 281 kts | 330° |
| 2026-04-12 05:31 | -25.74336 | 152.96182 | 13084 ft | 281 kts | 330° |
| 2026-04-12 05:31 | -25.72554 | 152.95296 | 12748 ft | 280 kts | 330° |
| 2026-04-12 05:31 | -25.70779 | 152.94414 | 12402 ft | 279 kts | 330° |
| 2026-04-12 05:31 | -25.69011 | 152.93535 | 12071 ft | 279 kts | 330° |
| 2026-04-12 05:32 | -25.67241 | 152.92653 | 11720 ft | 278 kts | 330° |
| 2026-04-12 05:32 | -25.65477 | 152.91775 | 11391 ft | 278 kts | 330° |
| 2026-04-12 05:32 | -25.63712 | 152.90899 | 11053 ft | 278 kts | 330° |
| 2026-04-12 05:32 | -25.61951 | 152.90022 | 10717 ft | 278 kts | 330° |
| 2026-04-12 05:33 | -25.60178 | 152.89143 | 10358 ft | 279 kts | 330° |
| 2026-04-12 05:33 | -25.58429 | 152.88279 | 10032 ft | 279 kts | 330° |
| 2026-04-12 05:33 | -25.56659 | 152.87402 | 9728 ft | 278 kts | 330° |
| 2026-04-12 05:33 | -25.54897 | 152.86530 | 9380 ft | 277 kts | 331° |
| 2026-04-12 05:34 | -25.53134 | 152.85659 | 9036 ft | 277 kts | 331° |
| 2026-04-12 05:34 | -25.51374 | 152.84788 | 8698 ft | 277 kts | 331° |
| 2026-04-12 05:34 | -25.49620 | 152.83914 | 8352 ft | 277 kts | 331° |
| 2026-04-12 05:34 | -25.47867 | 152.83041 | 8012 ft | 277 kts | 331° |
| 2026-04-12 05:35 | -25.46104 | 152.82170 | 7664 ft | 277 kts | 332° |
| 2026-04-12 05:35 | -25.44345 | 152.81305 | 7318 ft | 277 kts | 332° |
| 2026-04-12 05:35 | -25.42584 | 152.80436 | 6974 ft | 277 kts | 332° |
| 2026-04-12 05:35 | -25.40823 | 152.79565 | 6633 ft | 277 kts | 332° |
| 2026-04-12 05:36 | -25.39058 | 152.78689 | 6275 ft | 278 kts | 333° |
| 2026-04-12 05:36 | -25.37294 | 152.77816 | 5911 ft | 278 kts | 333° |
| 2026-04-12 05:36 | -25.35549 | 152.76954 | 5601 ft | 272 kts | 333° |
| 2026-04-12 05:36 | -25.33847 | 152.76116 | 5225 ft | 263 kts | 333° |
| 2026-04-12 05:37 | -25.32201 | 152.75305 | 4899 ft | 254 kts | 333° |
| 2026-04-12 05:37 | -25.30610 | 152.74523 | 4585 ft | 246 kts | 333° |
| 2026-04-12 05:37 | -25.29080 | 152.73771 | 4277 ft | 236 kts | 333° |
| 2026-04-12 05:37 | -25.27603 | 152.73045 | 3980 ft | 229 kts | 333° |
| 2026-04-12 05:38 | -25.26175 | 152.72343 | 3693 ft | 220 kts | 333° |
| 2026-04-12 05:38 | -25.24779 | 152.71724 | 3408 ft | 214 kts | 347° |
| 2026-04-12 05:38 | -25.23352 | 152.71987 | 3161 ft | 211 kts | 32° |
| 2026-04-12 05:38 | -25.22526 | 152.73243 | 2911 ft | 203 kts | 80° |
| 2026-04-12 05:39 | -25.22769 | 152.74655 | 2699 ft | 183 kts | 130° |
| 2026-04-12 05:39 | -25.23730 | 152.75409 | 2517 ft | 161 kts | 166° |
| 2026-04-12 05:39 | -25.24776 | 152.75633 | 2355 ft | 153 kts | 169° |
| 2026-04-12 05:39 | -25.25734 | 152.76103 | 2200 ft | 149 kts | 147° |
| 2026-04-12 05:40 | -25.26454 | 152.76913 | 2019 ft | 149 kts | 127° |
| 2026-04-12 05:40 | -25.26959 | 152.77910 | 1852 ft | 148 kts | 122° |
| 2026-04-12 05:40 | -25.27454 | 152.78904 | 1670 ft | 147 kts | 122° |
| 2026-04-12 05:40 | -25.27948 | 152.79894 | 1478 ft | 147 kts | 120° |
| 2026-04-12 05:41 | -25.28442 | 152.80884 | 1291 ft | 147 kts | 121° |
| 2026-04-12 05:41 | -25.28934 | 152.81869 | 1092 ft | 146 kts | 120° |
| 2026-04-12 05:41 | -25.29420 | 152.82845 | 906 ft | 145 kts | 117° |
| 2026-04-12 05:41 | -25.29902 | 152.83825 | 731 ft | 145 kts | 118° |
| 2026-04-12 05:42 | -25.30374 | 152.84808 | 569 ft | 144 kts | 117° |
| 2026-04-12 05:42 | -25.30410 | 152.84883 | 557 ft | 144 kts | 117° |
| 2026-04-12 05:42 | -25.30515 | 152.85105 | 511 ft | 144 kts | 118° |
| 2026-04-12 05:43 | -25.31502 | 152.87040 | 102 ft | 144 kts | 119° |
| 2026-04-12 05:43 | -25.31948 | 152.87933 | 62 ft | 113 kts | 118° |
| 2026-04-12 05:43 | -25.32244 | 152.88527 | 54 ft | 63 kts | 117° |
| 2026-04-12 05:43 | -25.32396 | 152.88849 | 57 ft | 16 kts | 99° |
| 2026-04-12 05:44 | -25.32412 | 152.88869 | 58 ft | 4 kts | 267° |
| 2026-04-12 05:44 | -25.32386 | 152.88812 | 55 ft | 13 kts | 301° |
| 2026-04-12 05:44 | -25.32326 | 152.88696 | 55 ft | 21 kts | 299° |
| 2026-04-12 05:44 | -25.32251 | 152.88543 | 56 ft | 24 kts | 298° |
| 2026-04-12 05:45 | -25.32178 | 152.88428 | 53 ft | 7 kts | 353° |
| 2026-04-12 05:45 | -25.32127 | 152.88455 | 56 ft | 9 kts | 31° |
| 2026-04-12 05:45 | -25.32115 | 152.88464 | 56 ft | 1 kts | 30° |
| 2026-04-12 05:45 | -25.32101 | 152.88472 | 61 ft | 4 kts | 27° |
| 2026-04-12 05:46 | -25.32061 | 152.88448 | 57 ft | 11 kts | 302° |
| 2026-04-12 05:46 | -25.32037 | 152.88455 | 58 ft | 4 kts | 70° |
| 2026-04-12 05:46 | -25.32029 | 152.88477 | 55 ft | 0 kts | 69° |
| 2026-04-12 05:46 | -25.32029 | 152.88478 | 55 ft | 0 kts | 69° |